createdAt,value
2018-07-30T00:01:44.609Z,28.50
2018-07-30T00:04:12.484Z,28.50
2018-07-30T00:06:40.130Z,28.50
2018-07-30T00:09:08.604Z,28.50
2018-07-30T00:11:36.432Z,28.40
2018-07-30T00:16:31.800Z,28.40
2018-07-30T00:18:59.498Z,28.40
2018-07-30T00:21:27.455Z,28.30
2018-07-30T00:23:55.160Z,28.30
2018-07-30T00:28:50.724Z,28.30
2018-07-30T00:31:18.508Z,28.20
2018-07-30T00:33:46.117Z,28.20
2018-07-30T00:36:16.149Z,28.20
2018-07-30T00:38:43.784Z,28.10
2018-07-30T00:41:11.558Z,28.10
2018-07-30T00:43:39.200Z,28.10
2018-07-30T00:46:07.246Z,28.10
2018-07-30T00:51:02.532Z,28.10
2018-07-30T00:53:30.757Z,28.00
2018-07-30T00:55:58.401Z,28.00
2018-07-30T00:58:25.977Z,28.00
2018-07-30T01:00:53.920Z,27.90
2018-07-30T01:03:21.549Z,27.90
2018-07-30T01:05:49.117Z,27.90
2018-07-30T01:08:17.076Z,27.90
2018-07-30T01:13:12.364Z,27.80
2018-07-30T01:15:40.211Z,27.80
2018-07-30T01:18:07.880Z,27.80
2018-07-30T01:20:36.017Z,27.80
2018-07-30T01:25:31.440Z,27.80
2018-07-30T01:27:59.344Z,27.80
2018-07-30T01:30:27.413Z,27.80
2018-07-30T01:35:22.721Z,27.70
2018-07-30T01:37:50.883Z,27.70
2018-07-30T01:40:18.500Z,27.70
2018-07-30T01:45:13.951Z,27.70
2018-07-30T01:47:41.535Z,27.70
2018-07-30T01:50:09.141Z,27.60
2018-07-30T01:52:36.900Z,27.60
2018-07-30T01:55:04.528Z,27.60
2018-07-30T01:57:32.157Z,27.60
2018-07-30T02:00:00.152Z,27.60
2018-07-30T02:02:27.978Z,27.50
2018-07-30T02:04:58.308Z,27.50
2018-07-30T02:07:26.413Z,27.50
2018-07-30T02:12:22.180Z,27.50
2018-07-30T02:14:50.022Z,27.40
2018-07-30T02:17:17.674Z,27.40
2018-07-30T02:19:45.254Z,27.40
2018-07-30T02:22:12.917Z,27.40
2018-07-30T02:24:40.715Z,27.40
2018-07-30T02:27:08.297Z,27.40
2018-07-30T02:29:35.952Z,27.40
2018-07-30T02:32:03.914Z,27.40
2018-07-30T02:36:59.294Z,27.40
2018-07-30T02:39:26.957Z,27.40
2018-07-30T02:41:54.686Z,27.40
2018-07-30T02:46:52.110Z,27.40
2018-07-30T02:49:20.095Z,27.40
2018-07-30T02:51:47.745Z,27.40
2018-07-30T02:54:15.331Z,27.40
2018-07-30T02:56:42.993Z,27.30
2018-07-30T02:59:10.375Z,27.30
2018-07-30T03:01:38.061Z,27.30
2018-07-30T03:04:05.928Z,27.30
2018-07-30T03:06:33.580Z,27.30
2018-07-30T03:09:01.225Z,27.30
2018-07-30T03:11:28.905Z,27.30
2018-07-30T03:13:56.523Z,27.30
2018-07-30T03:16:24.088Z,27.30
2018-07-30T03:18:51.861Z,27.30
2018-07-30T03:21:19.481Z,27.30
2018-07-30T03:23:47.139Z,27.20
2018-07-30T03:26:14.917Z,27.20
2018-07-30T03:28:42.493Z,27.20
2018-07-30T03:33:38.133Z,27.20
2018-07-30T03:36:06.065Z,27.20
2018-07-30T03:38:33.689Z,27.20
2018-07-30T03:43:29.149Z,27.20
2018-07-30T03:45:56.749Z,27.20
2018-07-30T03:48:24.969Z,27.20
2018-07-30T03:53:20.616Z,27.10
2018-07-30T03:55:48.897Z,27.10
2018-07-30T04:00:44.434Z,27.10
2018-07-30T04:03:12.331Z,27.10
2018-07-30T04:05:40.235Z,27.10
2018-07-30T04:08:07.837Z,27.10
2018-07-30T04:13:03.133Z,27.00
2018-07-30T04:15:30.806Z,27.10
2018-07-30T04:17:58.819Z,27.10
2018-07-30T04:20:26.413Z,27.10
2018-07-30T04:22:54.050Z,27.10
2018-07-30T04:25:22.022Z,27.10
2018-07-30T04:30:17.648Z,27.10
2018-07-30T04:32:45.409Z,27.00
2018-07-30T04:35:12.985Z,27.00
2018-07-30T04:37:40.605Z,27.10
2018-07-30T04:40:08.298Z,27.00
2018-07-30T04:42:35.924Z,27.10
2018-07-30T04:45:03.592Z,27.10
2018-07-30T04:47:31.271Z,27.10
2018-07-30T04:49:58.915Z,27.10
2018-07-30T04:52:26.738Z,27.10
2018-07-30T04:54:54.416Z,27.10
2018-07-30T04:57:22.044Z,27.20
2018-07-30T04:59:49.846Z,27.20
2018-07-30T05:02:17.855Z,27.20
2018-07-30T05:04:45.572Z,27.30
2018-07-30T05:07:13.249Z,27.30
2018-07-30T05:09:40.978Z,27.30
2018-07-30T05:12:08.589Z,27.40
2018-07-30T05:14:36.302Z,27.40
2018-07-30T05:17:04.074Z,27.40
2018-07-30T05:19:31.744Z,27.50
2018-07-30T05:21:59.462Z,27.50
2018-07-30T05:24:27.472Z,27.50
2018-07-30T05:39:14.093Z,27.60
2018-07-30T05:44:09.718Z,27.70
2018-07-30T05:46:37.356Z,27.70
2018-07-30T05:49:05.044Z,27.70
2018-07-30T05:51:32.682Z,27.80
2018-07-30T05:54:00.414Z,27.80
2018-07-30T05:56:28.009Z,27.80
2018-07-30T05:58:55.966Z,27.80
2018-07-30T06:01:23.570Z,27.90
2018-07-30T06:03:51.247Z,27.90
2018-07-30T06:06:19.062Z,27.90
2018-07-30T06:08:46.477Z,27.90
2018-07-30T06:11:14.077Z,28.00
2018-07-30T06:13:41.941Z,28.00
2018-07-30T06:21:04.977Z,28.10
2018-07-30T06:23:32.513Z,28.10
2018-07-30T06:26:00.131Z,28.20
2018-07-30T06:28:28.070Z,28.30
2018-07-30T06:30:55.672Z,28.30
2018-07-30T06:33:23.292Z,28.40
2018-07-30T06:35:51.170Z,28.50
2018-07-30T06:38:18.842Z,28.70
2018-07-30T06:40:46.515Z,29.00
2018-07-30T06:43:14.185Z,29.30
2018-07-30T06:45:41.773Z,29.80
2018-07-30T06:48:09.458Z,30.20
2018-07-30T06:50:37.084Z,30.80
2018-07-30T06:53:04.742Z,31.40
2018-07-30T06:55:32.598Z,32.00
2018-07-30T06:58:00.487Z,32.60
2018-07-30T07:00:28.076Z,33.20
2018-07-30T07:02:55.600Z,33.80
2018-07-30T07:05:23.258Z,34.30
2018-07-30T07:07:50.800Z,34.80
2018-07-30T07:10:18.408Z,35.30
2018-07-30T07:12:46.162Z,35.80
2018-07-30T07:15:20.583Z,36.30
2018-07-30T07:17:48.261Z,36.80
2018-07-30T07:20:15.836Z,37.20
2018-07-30T07:22:43.685Z,37.60
2018-07-30T07:25:11.293Z,38.00
2018-07-30T07:27:38.889Z,38.30
2018-07-30T07:30:08.317Z,38.70
2018-07-30T07:32:35.925Z,39.00
2018-07-30T07:35:03.951Z,39.40
2018-07-30T07:37:31.809Z,39.70
2018-07-30T07:39:59.360Z,40.10
2018-07-30T07:42:27.057Z,40.40
2018-07-30T07:44:55.037Z,40.80
2018-07-30T07:47:22.593Z,41.10
2018-07-30T07:49:50.188Z,41.50
2018-07-30T07:54:45.692Z,42.10
2018-07-30T07:57:13.262Z,42.40
2018-07-30T07:59:40.957Z,42.70
2018-07-30T08:02:08.627Z,43.00
2018-07-30T08:07:04.215Z,43.50
2018-07-30T08:09:31.861Z,43.70
2018-07-30T08:11:59.697Z,44.00
2018-07-30T08:16:55.612Z,44.60
2018-07-30T08:19:23.201Z,44.80
2018-07-30T08:21:50.835Z,45.10
2018-07-30T08:24:18.449Z,45.40
2018-07-30T08:29:13.945Z,45.90
2018-07-30T08:31:41.531Z,46.20
2018-07-30T08:34:09.193Z,46.50
2018-07-30T08:36:37.073Z,46.80
2018-07-30T08:39:08.771Z,47.00
2018-07-30T08:41:36.722Z,47.30
2018-07-30T08:46:32.546Z,47.70
2018-07-30T08:49:00.429Z,47.80
2018-07-30T08:51:28.063Z,47.80
2018-07-30T08:53:55.913Z,47.80
2018-07-30T08:56:23.804Z,47.80
2018-07-30T08:58:51.541Z,47.90
2018-07-30T09:01:19.144Z,47.90
2018-07-30T09:03:46.976Z,47.90
2018-07-30T09:08:42.224Z,47.90
2018-07-30T09:11:10.041Z,47.80
2018-07-30T09:13:37.817Z,47.80
2018-07-30T09:18:33.242Z,47.70
2018-07-30T09:21:00.846Z,47.70
2018-07-30T09:23:28.884Z,47.60
2018-07-30T09:25:56.516Z,47.70
2018-07-30T09:28:24.091Z,47.70
2018-07-30T09:30:51.832Z,47.70
2018-07-30T09:33:19.500Z,47.70
2018-07-30T09:35:47.442Z,47.80
2018-07-30T09:40:42.694Z,47.90
2018-07-30T09:43:10.629Z,48.00
2018-07-30T09:45:38.210Z,48.00
2018-07-30T09:53:04.729Z,48.20
2018-07-30T09:55:32.362Z,48.20
2018-07-30T09:58:00.353Z,48.10
2018-07-30T10:00:33.994Z,48.10
2018-07-30T10:03:02.257Z,48.10
2018-07-30T10:05:29.853Z,48.10
2018-07-30T10:07:57.861Z,48.10
2018-07-30T10:12:53.172Z,48.30
2018-07-30T10:15:20.537Z,48.40
2018-07-30T10:17:48.359Z,48.50
2018-07-30T10:20:16.105Z,48.50
2018-07-30T10:22:43.716Z,48.60
2018-07-30T10:25:11.997Z,48.70
2018-07-30T10:27:39.645Z,48.80
2018-07-30T10:30:07.789Z,48.80
2018-07-30T10:32:35.437Z,48.90
2018-07-30T10:35:03.120Z,48.90
2018-07-30T10:42:27.011Z,49.10
2018-07-30T10:44:54.640Z,49.20
2018-07-30T10:47:22.266Z,49.10
2018-07-30T10:52:17.754Z,48.90
2018-07-30T10:54:45.524Z,48.80
2018-07-30T10:57:13.360Z,48.60
2018-07-30T11:02:08.660Z,48.00
2018-07-30T11:04:38.924Z,47.70
2018-07-30T11:07:06.733Z,47.40
2018-07-30T11:09:34.414Z,47.20
2018-07-30T11:12:02.841Z,47.00
2018-07-30T11:19:33.198Z,46.50
2018-07-30T11:22:00.831Z,46.40
2018-07-30T11:24:28.430Z,46.40
2018-07-30T11:26:56.045Z,46.40
2018-07-30T11:29:23.746Z,46.50
2018-07-30T11:31:51.309Z,46.50
2018-07-30T11:34:18.948Z,46.50
2018-07-30T11:36:47.025Z,46.40
2018-07-30T11:39:14.705Z,46.30
2018-07-30T11:41:42.345Z,46.00
2018-07-30T11:44:10.062Z,45.70
2018-07-30T11:46:37.953Z,45.40
2018-07-30T11:49:05.614Z,45.00
2018-07-30T11:51:33.324Z,44.60
2018-07-30T11:54:01.471Z,44.20
2018-07-30T11:56:29.348Z,43.80
2018-07-30T12:01:25.429Z,43.00
2018-07-30T12:03:53.802Z,42.60
2018-07-30T12:06:22.021Z,42.30
2018-07-30T12:08:49.944Z,42.00
2018-07-30T12:11:17.849Z,41.80
2018-07-30T12:13:45.612Z,41.70
2018-07-30T12:16:12.962Z,41.70
2018-07-30T12:18:40.600Z,41.60
2018-07-30T12:23:36.082Z,41.70
2018-07-30T12:26:03.764Z,41.80
2018-07-30T12:28:31.369Z,41.90
2018-07-30T12:33:26.777Z,42.10
2018-07-30T12:35:54.824Z,42.30
2018-07-30T12:38:22.430Z,42.50
2018-07-30T12:40:50.113Z,42.70
2018-07-30T12:43:17.762Z,42.90
2018-07-30T12:45:46.640Z,43.00
2018-07-30T12:48:14.713Z,43.20
2018-07-30T12:50:42.340Z,43.40
2018-07-30T12:53:10.180Z,43.50
2018-07-30T12:55:38.017Z,43.70
2018-07-30T12:58:06.155Z,43.80
2018-07-30T13:00:33.956Z,43.90
2018-07-30T13:03:01.921Z,44.00
2018-07-30T13:05:29.488Z,44.10
2018-07-30T13:07:57.240Z,44.20
2018-07-30T13:10:24.828Z,44.20
2018-07-30T13:12:52.656Z,44.20
2018-07-30T13:15:20.381Z,44.30
2018-07-30T13:17:48.642Z,44.40
2018-07-30T13:20:16.273Z,44.40
2018-07-30T13:22:44.372Z,44.50
2018-07-30T13:25:11.945Z,44.50
2018-07-30T13:27:39.556Z,44.50
2018-07-30T13:30:08.481Z,44.60
2018-07-30T13:32:36.323Z,44.50
2018-07-30T13:35:04.857Z,44.50
2018-07-30T13:37:32.700Z,44.50
2018-07-30T13:42:28.094Z,44.30
2018-07-30T13:44:56.117Z,44.20
2018-07-30T13:49:51.679Z,44.00
2018-07-30T13:52:19.727Z,43.80
2018-07-30T13:59:42.749Z,43.50
2018-07-30T14:02:10.330Z,43.40
2018-07-30T14:04:37.908Z,43.20
2018-07-30T14:07:05.727Z,42.90
2018-07-30T14:12:01.061Z,42.60
2018-07-30T14:14:28.732Z,42.50
2018-07-30T14:19:24.645Z,42.20
2018-07-30T14:21:52.469Z,42.10
2018-07-30T14:24:20.128Z,41.90
2018-07-30T14:26:47.798Z,41.80
2018-07-30T14:31:44.298Z,41.60
2018-07-30T14:34:12.138Z,41.50
2018-07-30T14:36:39.848Z,41.40
2018-07-30T14:39:09.024Z,41.40
2018-07-30T14:41:37.061Z,41.30
2018-07-30T14:44:04.861Z,41.30
2018-07-30T14:46:32.849Z,41.20
2018-07-30T14:51:29.329Z,40.90
2018-07-30T14:56:25.904Z,40.80
2018-07-30T15:01:21.319Z,40.60
2018-07-30T15:03:48.964Z,40.60
2018-07-30T15:06:16.874Z,40.50
2018-07-30T15:08:44.602Z,40.40
2018-07-30T15:11:12.313Z,40.30
2018-07-30T15:16:07.828Z,40.10
2018-07-30T15:18:35.444Z,40.00
2018-07-30T15:21:03.716Z,39.90
2018-07-30T15:23:31.344Z,39.70
2018-07-30T15:25:59.142Z,39.60
2018-07-30T15:50:25.984Z,39.50
2018-07-30T16:05:07.549Z,38.50
2018-07-30T16:07:35.188Z,38.50
2018-07-30T16:12:30.762Z,38.40
2018-07-30T16:14:59.424Z,38.50
2018-07-30T16:17:27.107Z,38.50
2018-07-30T16:19:54.789Z,38.60
2018-07-30T16:22:22.447Z,38.60
2018-07-30T16:24:50.390Z,38.60
2018-07-30T16:27:18.034Z,38.60
2018-07-30T16:29:45.666Z,38.60
2018-07-30T16:32:13.312Z,38.50
2018-07-30T16:34:40.941Z,38.50
2018-07-30T16:37:08.590Z,38.50
2018-07-30T16:39:36.401Z,38.50
2018-07-30T16:42:04.337Z,38.40
2018-07-30T16:44:32.219Z,38.40
2018-07-30T16:46:59.928Z,38.40
2018-07-30T16:49:27.594Z,38.40
2018-07-30T16:51:55.320Z,38.40
2018-07-30T16:54:23.002Z,38.30
2018-07-30T16:56:50.624Z,38.40
2018-07-30T16:59:18.254Z,38.30
2018-07-30T17:01:47.026Z,38.30
2018-07-30T17:04:14.637Z,38.40
2018-07-30T17:06:42.341Z,38.30
2018-07-30T17:09:41.863Z,38.30
2018-07-30T17:12:10.000Z,38.30
2018-07-30T17:14:37.805Z,38.30
2018-07-30T17:17:05.788Z,38.30
2018-07-30T17:19:33.434Z,38.20
2018-07-30T17:22:01.440Z,38.20
2018-07-30T17:24:29.519Z,38.20
2018-07-30T17:26:57.140Z,38.10
2018-07-30T17:29:24.856Z,38.10
2018-07-30T17:31:52.823Z,38.10
2018-07-30T17:34:20.506Z,38.00
2018-07-30T17:36:48.174Z,38.00
2018-07-30T17:39:15.944Z,37.90
2018-07-30T17:41:43.615Z,37.90
2018-07-30T17:44:11.306Z,37.80
2018-07-30T17:46:38.914Z,37.80
2018-07-30T17:49:06.641Z,37.70
2018-07-30T17:51:34.505Z,37.70
2018-07-30T17:54:02.173Z,37.60
2018-07-30T17:56:31.712Z,37.50
2018-07-30T17:59:00.928Z,37.50
2018-07-30T18:01:28.580Z,37.40
2018-07-30T18:03:56.208Z,37.30
2018-07-30T18:06:24.003Z,37.30
2018-07-30T18:13:47.455Z,37.10
2018-07-30T18:16:15.117Z,37.00
2018-07-30T18:18:43.161Z,36.90
2018-07-30T18:26:07.047Z,36.80
2018-07-30T18:30:54.336Z,36.70
2018-07-30T18:35:49.845Z,36.40
2018-07-30T18:38:17.773Z,36.40
2018-07-30T18:40:45.469Z,36.30
2018-07-30T18:43:13.040Z,36.20
2018-07-30T18:45:41.071Z,36.20
2018-07-30T18:48:08.731Z,36.10
2018-07-30T18:50:36.204Z,36.00
2018-07-30T18:53:03.901Z,36.00
2018-07-30T18:55:31.490Z,35.90
2018-07-30T18:57:59.116Z,35.80
2018-07-30T19:00:26.876Z,35.70
2018-07-30T19:02:54.599Z,35.70
2018-07-30T19:07:50.404Z,35.50
2018-07-30T19:10:18.036Z,35.40
2018-07-30T19:15:13.399Z,35.30
2018-07-30T19:17:41.056Z,35.20
2018-07-30T19:20:08.754Z,35.20
2018-07-30T19:22:36.440Z,35.10
2018-07-30T19:25:04.433Z,35.00
2018-07-30T19:30:00.310Z,34.90
2018-07-30T19:32:28.054Z,34.80
2018-07-30T19:37:23.376Z,34.60
2018-07-30T19:39:50.986Z,34.60
2018-07-30T19:42:20.080Z,34.50
2018-07-30T19:44:47.693Z,34.40
2018-07-30T19:47:15.279Z,34.40
2018-07-30T19:49:43.200Z,34.30
2018-07-30T19:52:10.940Z,34.20
2018-07-30T19:54:38.615Z,34.10
2018-07-30T19:57:06.488Z,34.10
2018-07-30T19:59:34.183Z,34.00
2018-07-30T20:02:02.345Z,34.00
2018-07-30T20:04:30.072Z,33.90
2018-07-30T20:06:57.844Z,33.90
2018-07-30T20:09:25.452Z,33.80
2018-07-30T20:11:53.521Z,33.80
2018-07-30T20:14:21.253Z,33.70
2018-07-30T20:16:48.907Z,33.70
2018-07-30T20:19:16.656Z,33.60
2018-07-30T20:21:44.622Z,33.60
2018-07-30T20:24:12.264Z,33.50
2018-07-30T20:26:41.672Z,33.50
2018-07-30T20:29:09.484Z,33.40
2018-07-30T20:31:37.156Z,33.40
2018-07-30T20:34:05.524Z,33.40
2018-07-30T20:36:33.151Z,33.30
2018-07-30T20:39:00.810Z,33.30
2018-07-30T20:41:28.804Z,33.20
2018-07-30T20:43:56.788Z,33.20
2018-07-30T20:46:24.448Z,33.10
2018-07-30T20:48:52.141Z,33.00
2018-07-30T20:51:19.966Z,33.00
2018-07-30T20:53:47.584Z,32.90
2018-07-30T20:56:15.563Z,32.90
2018-07-30T20:58:43.280Z,32.80
2018-07-30T21:01:10.925Z,32.80
2018-07-30T21:03:38.600Z,32.70
2018-07-30T21:06:06.209Z,32.70
2018-07-30T21:08:34.068Z,32.60
2018-07-30T21:11:01.728Z,32.60
2018-07-30T21:13:29.480Z,32.50
2018-07-30T21:15:58.296Z,32.40
2018-07-30T21:18:25.938Z,32.40
2018-07-30T21:20:53.715Z,32.30
2018-07-30T21:23:21.748Z,32.30
2018-07-30T21:25:49.449Z,32.20
2018-07-30T21:28:16.809Z,32.20
2018-07-30T21:30:44.609Z,32.10
2018-07-30T21:33:12.280Z,32.10
2018-07-30T21:35:39.922Z,32.00
2018-07-30T21:38:07.781Z,31.90
2018-07-30T21:40:35.484Z,31.90
2018-07-30T21:43:03.326Z,31.80
2018-07-30T21:45:31.425Z,31.80
2018-07-30T21:47:59.056Z,31.70
2018-07-30T21:50:26.717Z,31.70
2018-07-30T21:52:54.733Z,31.60
2018-07-30T21:55:22.408Z,31.60
2018-07-30T21:57:50.174Z,31.50
2018-07-30T22:00:24.492Z,31.50
2018-07-30T22:02:53.749Z,31.40
2018-07-30T22:05:21.713Z,31.40
2018-07-30T22:07:49.419Z,31.30
2018-07-30T22:10:17.123Z,31.30
2018-07-30T22:12:44.902Z,31.20
2018-07-30T22:15:12.635Z,31.20
2018-07-30T22:17:40.341Z,31.10
2018-07-30T22:20:08.106Z,31.10
2018-07-30T22:22:36.841Z,31.00
2018-07-30T22:25:04.680Z,31.00
2018-07-30T22:27:32.569Z,30.90
2018-07-30T22:30:00.972Z,30.90
2018-07-30T22:32:28.854Z,30.80
2018-07-30T22:37:24.440Z,30.70
2018-07-30T22:39:52.149Z,30.60
2018-07-30T22:42:19.828Z,30.60
2018-07-30T22:44:47.465Z,30.50
2018-07-30T22:47:15.236Z,30.50
2018-07-30T22:49:42.878Z,30.40
2018-07-30T22:52:10.564Z,30.40
2018-07-30T22:54:38.328Z,30.40
2018-07-30T22:59:33.781Z,30.20
2018-07-30T23:02:01.516Z,30.10
2018-07-30T23:04:29.268Z,30.10
2018-07-30T23:06:57.356Z,30.00
2018-07-30T23:09:25.016Z,30.00
2018-07-30T23:11:52.682Z,29.90
2018-07-30T23:14:20.522Z,29.90
2018-07-30T23:16:48.212Z,29.80
2018-07-30T23:19:15.918Z,29.70
2018-07-30T23:21:43.885Z,29.70
2018-07-30T23:24:11.594Z,29.60
2018-07-30T23:31:35.202Z,29.50
2018-07-30T23:36:30.862Z,29.40
2018-07-30T23:38:58.577Z,29.40
2018-07-30T23:41:31.559Z,29.40
2018-07-30T23:43:59.314Z,29.30
2018-07-30T23:46:39.269Z,29.30
2018-07-30T23:49:08.701Z,29.30
2018-07-30T23:52:14.536Z,29.20
2018-07-30T23:57:56.145Z,29.10
